createdAt,value
2022-10-26T00:01:02.148Z,15.40
2022-10-26T00:03:29.058Z,15.40
2022-10-26T00:05:55.841Z,15.40
2022-10-26T00:08:22.808Z,15.50
2022-10-26T00:10:49.696Z,15.50
2022-10-26T00:13:16.380Z,15.50
2022-10-26T00:15:43.138Z,15.50
2022-10-26T00:18:10.455Z,15.50
2022-10-26T00:20:37.344Z,15.50
2022-10-26T00:23:04.537Z,15.60
2022-10-26T00:25:31.352Z,15.60
2022-10-26T00:27:58.055Z,15.60
2022-10-26T00:30:24.921Z,15.60
2022-10-26T00:32:51.764Z,15.60
2022-10-26T00:35:23.964Z,15.60
2022-10-26T00:38:01.427Z,15.60
2022-10-26T00:40:29.287Z,15.60
2022-10-26T00:42:56.281Z,15.60
2022-10-26T00:45:28.305Z,15.60
2022-10-26T00:47:58.863Z,15.60
2022-10-26T00:50:39.700Z,15.70
2022-10-26T00:53:06.900Z,15.70
2022-10-26T00:55:35.970Z,15.60
2022-10-26T00:58:03.347Z,15.70
2022-10-26T01:00:31.188Z,15.70
2022-10-26T01:02:58.367Z,15.70
2022-10-26T01:05:25.114Z,15.70
2022-10-26T01:07:52.114Z,15.70
2022-10-26T01:10:19.034Z,15.70
2022-10-26T01:12:45.788Z,15.60
2022-10-26T01:15:13.046Z,15.60
2022-10-26T01:17:57.215Z,15.70
2022-10-26T01:20:32.603Z,15.60
2022-10-26T01:23:30.347Z,15.70
2022-10-26T01:26:34.724Z,15.70
2022-10-26T01:29:07.607Z,15.70
2022-10-26T01:32:04.943Z,15.70
2022-10-26T01:34:43.405Z,15.70
2022-10-26T01:37:15.318Z,15.70
2022-10-26T01:39:45.919Z,15.70
2022-10-26T01:42:12.617Z,15.70
2022-10-26T01:44:42.915Z,15.70
2022-10-26T01:47:11.439Z,15.70
2022-10-26T01:49:40.275Z,15.70
2022-10-26T01:52:08.653Z,15.70
2022-10-26T01:57:06.199Z,15.70
2022-10-26T01:59:35.834Z,15.60
2022-10-26T02:02:43.638Z,15.60
2022-10-26T02:05:20.003Z,15.70
2022-10-26T02:07:57.746Z,15.60
2022-10-26T02:10:33.027Z,15.60
2022-10-26T02:13:30.589Z,15.60
2022-10-26T02:16:17.958Z,15.60
2022-10-26T02:19:03.622Z,15.60
2022-10-26T02:21:36.607Z,15.60
2022-10-26T02:24:03.521Z,15.60
2022-10-26T02:26:30.395Z,15.60
2022-10-26T02:29:00.864Z,15.60
2022-10-26T02:31:27.609Z,15.60
2022-10-26T02:33:55.283Z,15.60
2022-10-26T02:36:29.206Z,15.60
2022-10-26T02:38:55.974Z,15.60
2022-10-26T02:41:22.721Z,15.60
2022-10-26T02:44:13.325Z,15.50
2022-10-26T02:46:40.293Z,15.50
2022-10-26T02:49:07.131Z,15.50
2022-10-26T02:51:39.110Z,15.40
2022-10-26T02:54:16.794Z,15.40
2022-10-26T02:56:52.443Z,15.40
2022-10-26T02:59:20.143Z,15.40
2022-10-26T03:01:46.930Z,15.40
2022-10-26T03:04:14.075Z,15.30
2022-10-26T03:06:40.962Z,15.30
2022-10-26T03:09:07.665Z,15.30
2022-10-26T03:11:34.486Z,15.30
2022-10-26T03:14:01.267Z,15.30
2022-10-26T03:16:28.166Z,15.30
2022-10-26T03:18:55.093Z,15.30
2022-10-26T03:21:21.841Z,15.30
2022-10-26T03:23:50.726Z,15.30
2022-10-26T03:26:17.639Z,15.30
2022-10-26T03:28:44.470Z,15.30
2022-10-26T03:31:11.213Z,15.30
2022-10-26T03:36:04.844Z,15.30
2022-10-26T03:38:31.652Z,15.30
2022-10-26T03:40:58.447Z,15.30
2022-10-26T03:43:25.273Z,15.30
2022-10-26T03:45:52.012Z,15.30
2022-10-26T03:48:18.875Z,15.30
2022-10-26T03:50:45.757Z,15.20
2022-10-26T03:53:12.496Z,15.30
2022-10-26T03:55:39.297Z,15.20
2022-10-26T03:58:08.917Z,15.30
2022-10-26T04:00:35.750Z,15.30
2022-10-26T04:03:02.505Z,15.40
2022-10-26T04:05:29.583Z,15.50
2022-10-26T04:07:57.999Z,15.60
2022-10-26T04:10:25.685Z,15.60
2022-10-26T04:12:52.973Z,15.70
2022-10-26T04:15:19.824Z,15.80
2022-10-26T04:17:47.094Z,15.80
2022-10-26T04:20:14.548Z,15.90
2022-10-26T04:22:41.296Z,16.00
2022-10-26T04:25:08.580Z,16.00
2022-10-26T04:27:35.614Z,16.10
2022-10-26T04:30:02.395Z,16.20
2022-10-26T04:32:29.108Z,16.20
2022-10-26T04:34:55.826Z,16.20
2022-10-26T04:37:22.605Z,16.30
2022-10-26T04:39:49.375Z,16.40
2022-10-26T04:42:16.143Z,16.40
2022-10-26T04:44:42.899Z,16.40
2022-10-26T04:47:09.697Z,16.40
2022-10-26T04:49:36.447Z,16.40
2022-10-26T04:52:03.152Z,16.50
2022-10-26T04:54:29.996Z,16.50
2022-10-26T04:56:56.721Z,16.50
2022-10-26T04:59:23.542Z,16.50
2022-10-26T05:01:50.424Z,16.50
2022-10-26T05:04:17.195Z,16.50
2022-10-26T05:06:43.932Z,16.50
2022-10-26T05:09:10.873Z,16.50
2022-10-26T05:11:37.651Z,16.40
2022-10-26T05:14:04.466Z,16.40
2022-10-26T05:16:31.237Z,16.30
2022-10-26T05:18:58.106Z,16.20
2022-10-26T05:21:24.759Z,16.10
2022-10-26T05:23:55.624Z,16.10
2022-10-26T05:26:23.325Z,16.00
2022-10-26T05:28:50.987Z,16.00
2022-10-26T05:31:17.908Z,15.90
2022-10-26T05:33:44.882Z,15.90
2022-10-26T05:36:11.649Z,15.90
2022-10-26T05:38:41.378Z,15.80
2022-10-26T05:41:08.167Z,15.90
2022-10-26T05:43:34.931Z,15.80
2022-10-26T05:46:01.695Z,15.80
2022-10-26T05:48:28.576Z,15.70
2022-10-26T05:50:58.388Z,15.70
2022-10-26T05:53:25.195Z,15.70
2022-10-26T05:55:52.259Z,15.70
2022-10-26T05:58:19.492Z,15.60
2022-10-26T06:00:53.216Z,15.60
2022-10-26T06:03:43.070Z,15.70
2022-10-26T06:06:09.815Z,15.70
2022-10-26T06:08:36.891Z,15.80
2022-10-26T06:11:03.984Z,15.90
2022-10-26T06:13:31.075Z,16.00
2022-10-26T06:16:01.928Z,16.00
2022-10-26T06:18:53.068Z,16.00
2022-10-26T06:22:00.100Z,16.00
2022-10-26T06:24:29.582Z,15.90
2022-10-26T06:27:34.073Z,15.90
2022-10-26T06:30:01.825Z,15.90
2022-10-26T06:32:28.697Z,15.90
2022-10-26T06:35:24.430Z,15.90
2022-10-26T06:37:51.653Z,15.90
2022-10-26T06:40:19.128Z,15.90
2022-10-26T06:42:46.236Z,15.90
2022-10-26T06:45:16.807Z,15.80
2022-10-26T06:47:52.602Z,15.80
2022-10-26T06:50:31.214Z,15.80
2022-10-26T06:53:13.427Z,15.80
2022-10-26T06:55:44.598Z,15.80
2022-10-26T06:58:19.725Z,15.80
2022-10-26T07:00:48.584Z,15.80
2022-10-26T07:03:15.440Z,15.90
2022-10-26T07:05:42.815Z,15.90
2022-10-26T07:08:09.620Z,15.90
2022-10-26T07:10:38.890Z,15.90
2022-10-26T07:13:06.709Z,15.90
2022-10-26T07:15:34.448Z,16.00
2022-10-26T07:18:01.334Z,16.00
2022-10-26T07:20:28.159Z,16.00
2022-10-26T07:22:55.651Z,16.00
2022-10-26T07:25:22.602Z,16.00
2022-10-26T07:27:49.556Z,16.00
2022-10-26T07:30:16.538Z,16.00
2022-10-26T07:32:43.886Z,16.00
2022-10-26T07:35:10.774Z,16.00
2022-10-26T07:37:37.717Z,16.00
2022-10-26T07:40:06.923Z,16.00
2022-10-26T07:42:34.385Z,16.00
2022-10-26T07:45:01.106Z,16.00
2022-10-26T07:47:27.810Z,16.00
2022-10-26T07:49:54.539Z,16.00
2022-10-26T07:52:21.389Z,16.10
2022-10-26T07:54:48.426Z,16.20
2022-10-26T07:57:17.406Z,16.30
2022-10-26T07:59:44.654Z,16.40
2022-10-26T08:02:11.869Z,16.40
2022-10-26T08:04:38.665Z,16.50
2022-10-26T08:07:05.744Z,16.60
2022-10-26T08:09:32.536Z,16.60
2022-10-26T08:11:59.236Z,16.70
2022-10-26T08:14:26.476Z,16.80
2022-10-26T08:16:53.357Z,16.80
2022-10-26T08:19:20.291Z,16.90
2022-10-26T08:21:47.446Z,17.00
2022-10-26T08:24:14.233Z,17.00
2022-10-26T08:26:41.686Z,17.00
2022-10-26T08:29:08.484Z,17.10
2022-10-26T08:31:35.192Z,17.10
2022-10-26T08:34:04.054Z,17.20
2022-10-26T08:36:31.277Z,17.20
2022-10-26T08:41:33.478Z,17.30
2022-10-26T08:44:03.881Z,17.40
2022-10-26T08:46:41.829Z,17.40
2022-10-26T08:49:24.606Z,17.50
2022-10-26T08:51:53.356Z,17.60
2022-10-26T08:54:37.499Z,17.60
2022-10-26T08:57:21.557Z,17.70
2022-10-26T08:59:56.544Z,17.90
2022-10-26T09:02:24.859Z,18.00
2022-10-26T09:04:52.453Z,18.10
2022-10-26T09:07:30.499Z,18.20
2022-10-26T09:10:35.083Z,18.20
2022-10-26T09:13:27.488Z,18.30
2022-10-26T09:16:07.050Z,18.30
2022-10-26T09:18:53.511Z,18.30
2022-10-26T09:21:32.539Z,18.20
2022-10-26T09:24:03.208Z,18.30
2022-10-26T09:26:33.084Z,18.40
2022-10-26T09:29:03.851Z,18.50
2022-10-26T09:31:42.336Z,18.50
2022-10-26T09:34:17.767Z,18.60
2022-10-26T09:36:44.804Z,18.60
2022-10-26T09:39:24.940Z,18.50
2022-10-26T09:42:16.838Z,18.40
2022-10-26T09:45:13.996Z,18.30
2022-10-26T09:47:42.470Z,18.30
2022-10-26T09:50:31.033Z,18.30
2022-10-26T09:52:57.803Z,18.30
2022-10-26T09:55:24.926Z,18.30
2022-10-26T09:57:53.741Z,18.30
2022-10-26T10:00:22.890Z,18.30
2022-10-26T10:02:54.302Z,18.30
2022-10-26T10:08:25.761Z,18.30
2022-10-26T10:11:00.519Z,18.30
2022-10-26T10:13:29.499Z,18.30
2022-10-26T10:16:19.111Z,18.40
2022-10-26T10:18:56.080Z,18.30
2022-10-26T10:21:35.702Z,18.30
2022-10-26T10:24:02.405Z,18.40
2022-10-26T10:26:29.523Z,18.50
2022-10-26T10:29:00.943Z,18.60
2022-10-26T10:31:32.312Z,18.60
2022-10-26T10:33:59.323Z,18.60
2022-10-26T10:36:29.347Z,18.70
2022-10-26T10:38:56.363Z,18.70
2022-10-26T10:41:36.538Z,18.80
2022-10-26T10:44:16.215Z,18.90
2022-10-26T10:46:43.048Z,19.10
2022-10-26T10:49:22.256Z,19.30
2022-10-26T10:51:49.036Z,19.40
2022-10-26T10:54:36.406Z,19.40
2022-10-26T10:57:05.818Z,19.40
2022-10-26T10:59:41.510Z,19.40
2022-10-26T11:02:29.787Z,19.40
2022-10-26T11:05:15.574Z,19.60
2022-10-26T11:08:00.213Z,19.60
2022-10-26T11:10:28.123Z,19.60
2022-10-26T11:13:00.169Z,19.70
2022-10-26T11:15:28.428Z,19.70
2022-10-26T11:18:11.990Z,19.90
2022-10-26T11:20:52.574Z,19.90
2022-10-26T11:23:26.323Z,20.00
2022-10-26T11:26:09.768Z,20.00
2022-10-26T11:29:24.002Z,20.10
2022-10-26T11:32:12.142Z,20.10
2022-10-26T11:34:57.409Z,20.20
2022-10-26T11:37:38.632Z,20.20
2022-10-26T11:40:27.439Z,20.20
2022-10-26T11:43:20.613Z,20.40
2022-10-26T11:48:35.890Z,20.60
2022-10-26T11:51:33.297Z,20.70
2022-10-26T11:54:03.769Z,20.70
2022-10-26T11:56:32.934Z,20.60
2022-10-26T11:58:59.748Z,20.70
2022-10-26T12:01:26.567Z,20.80
2022-10-26T12:03:53.909Z,20.80
2022-10-26T12:06:27.438Z,20.90
2022-10-26T12:09:00.019Z,21.10
2022-10-26T12:11:32.790Z,21.10
2022-10-26T12:14:02.215Z,21.20
2022-10-26T12:16:52.564Z,21.10
2022-10-26T12:19:24.945Z,20.90
2022-10-26T12:21:51.791Z,20.90
2022-10-26T12:24:25.795Z,21.10
2022-10-26T12:26:55.502Z,21.20
2022-10-26T12:29:29.550Z,21.40
2022-10-26T12:31:56.334Z,21.60
2022-10-26T12:34:24.592Z,21.60
2022-10-26T12:36:57.328Z,21.50
2022-10-26T12:39:29.933Z,21.50
2022-10-26T12:42:16.910Z,21.30
2022-10-26T12:44:45.555Z,21.00
2022-10-26T12:47:30.770Z,20.80
2022-10-26T12:50:07.688Z,20.40
2022-10-26T12:52:48.276Z,20.30
2022-10-26T12:55:20.968Z,20.10
2022-10-26T12:57:51.535Z,20.10
2022-10-26T13:00:21.935Z,20.10
2022-10-26T13:03:11.126Z,20.10
2022-10-26T13:05:47.393Z,20.30
2022-10-26T13:08:14.252Z,20.70
2022-10-26T13:11:03.912Z,21.00
2022-10-26T13:13:31.811Z,21.20
2022-10-26T13:15:59.129Z,21.20
2022-10-26T13:18:25.854Z,21.20
2022-10-26T13:20:58.410Z,21.30
2022-10-26T13:23:26.947Z,21.30
2022-10-26T13:26:07.595Z,21.50
2022-10-26T13:28:40.163Z,21.60
2022-10-26T13:31:11.694Z,22.00
2022-10-26T13:33:40.048Z,22.00
2022-10-26T13:36:16.503Z,22.20
2022-10-26T13:38:43.206Z,22.40
2022-10-26T13:41:19.995Z,22.40
2022-10-26T13:43:46.779Z,22.30
2022-10-26T13:46:40.142Z,22.30
2022-10-26T13:49:16.903Z,22.40
2022-10-26T13:51:44.455Z,22.60
2022-10-26T13:54:32.613Z,22.60
2022-10-26T13:57:13.671Z,22.70
2022-10-26T13:59:42.470Z,22.80
2022-10-26T14:02:32.449Z,23.00
2022-10-26T14:05:06.066Z,23.00
2022-10-26T14:07:52.588Z,23.00
2022-10-26T14:10:41.699Z,22.90
2022-10-26T14:13:09.535Z,22.80
2022-10-26T14:15:36.250Z,22.70
2022-10-26T14:18:03.623Z,22.80
2022-10-26T14:20:30.960Z,22.80
2022-10-26T14:22:57.823Z,22.80
2022-10-26T14:25:41.738Z,22.70
2022-10-26T14:28:28.672Z,22.80
2022-10-26T14:30:57.155Z,22.50
2022-10-26T14:33:27.614Z,22.40
2022-10-26T14:35:54.299Z,22.10
2022-10-26T14:38:26.452Z,21.80
2022-10-26T14:40:55.072Z,22.00
2022-10-26T14:43:22.899Z,22.10
2022-10-26T14:45:50.602Z,21.70
2022-10-26T14:48:33.555Z,21.80
2022-10-26T14:51:00.709Z,22.00
2022-10-26T14:53:33.200Z,21.80
2022-10-26T14:56:00.125Z,21.60
2022-10-26T15:01:36.503Z,21.50
2022-10-26T15:04:06.864Z,21.90
2022-10-26T15:06:42.628Z,22.30
2022-10-26T15:09:51.106Z,22.30
2022-10-26T15:12:36.177Z,22.00
2022-10-26T15:15:14.797Z,21.90
2022-10-26T15:17:43.082Z,21.60
2022-10-26T15:20:19.465Z,21.70
2022-10-26T15:22:59.875Z,21.70
2022-10-26T15:25:28.364Z,21.60
2022-10-26T15:27:55.089Z,21.70
2022-10-26T15:30:25.587Z,21.60
2022-10-26T15:32:53.433Z,21.50
2022-10-26T15:35:24.402Z,21.40
2022-10-26T15:37:52.126Z,21.10
2022-10-26T15:40:19.245Z,20.90
2022-10-26T15:42:47.738Z,20.80
2022-10-26T15:45:16.431Z,20.90
2022-10-26T15:47:43.311Z,20.90
2022-10-26T15:50:17.213Z,20.80
2022-10-26T15:52:46.694Z,20.40
2022-10-26T15:55:16.884Z,20.00
2022-10-26T15:57:43.607Z,19.70
2022-10-26T16:00:15.215Z,19.70
2022-10-26T16:02:42.167Z,19.50
2022-10-26T16:05:09.336Z,19.20
2022-10-26T16:07:36.272Z,19.00
2022-10-26T16:10:03.085Z,18.80
2022-10-26T16:12:29.946Z,18.50
2022-10-26T16:15:12.144Z,18.40
2022-10-26T16:17:38.840Z,18.20
2022-10-26T16:20:09.052Z,18.20
2022-10-26T16:22:38.309Z,18.00
2022-10-26T16:25:06.010Z,17.90
2022-10-26T16:27:32.652Z,17.90
2022-10-26T16:29:59.284Z,17.80
2022-10-26T16:32:26.015Z,17.60
2022-10-26T16:34:52.648Z,17.50
2022-10-26T16:37:19.375Z,17.50
2022-10-26T16:39:46.062Z,17.40
2022-10-26T16:42:12.837Z,17.30
2022-10-26T16:44:39.630Z,17.20
2022-10-26T16:47:06.859Z,17.10
2022-10-26T16:49:33.555Z,17.00
2022-10-26T16:52:00.360Z,17.00
2022-10-26T16:54:27.071Z,16.90
2022-10-26T16:56:54.413Z,16.80
2022-10-26T16:59:21.157Z,16.80
2022-10-26T17:01:47.970Z,16.70
2022-10-26T17:04:14.660Z,16.70
2022-10-26T17:06:41.345Z,16.60
2022-10-26T17:09:08.046Z,16.60
2022-10-26T17:11:34.859Z,16.60
2022-10-26T17:14:01.808Z,16.50
2022-10-26T17:16:28.515Z,16.50
2022-10-26T17:18:55.288Z,16.40
2022-10-26T17:21:33.066Z,16.40
2022-10-26T17:24:00.090Z,16.30
2022-10-26T17:26:26.907Z,16.30
2022-10-26T17:28:54.495Z,16.30
2022-10-26T17:31:21.541Z,16.30
2022-10-26T17:33:51.212Z,16.20
2022-10-26T17:36:20.282Z,16.30
2022-10-26T17:38:49.162Z,16.20
2022-10-26T17:41:16.853Z,16.20
2022-10-26T17:43:44.110Z,16.20
2022-10-26T17:46:12.725Z,16.10
2022-10-26T17:48:39.386Z,16.10
2022-10-26T17:51:07.877Z,16.10
2022-10-26T17:53:34.815Z,16.10
2022-10-26T17:56:10.495Z,16.10
2022-10-26T17:58:37.654Z,16.00
2022-10-26T18:01:12.444Z,16.00
2022-10-26T18:03:39.466Z,16.00
2022-10-26T18:06:07.582Z,16.00
2022-10-26T18:08:35.239Z,15.90
2022-10-26T18:11:02.074Z,15.90
2022-10-26T18:13:29.172Z,15.90
2022-10-26T18:15:55.958Z,15.80
2022-10-26T18:18:22.805Z,15.80
2022-10-26T18:20:49.499Z,15.70
2022-10-26T18:23:16.218Z,15.70
2022-10-26T18:25:42.865Z,15.70
2022-10-26T18:28:09.507Z,15.60
2022-10-26T18:30:36.266Z,15.60
2022-10-26T18:33:02.909Z,15.60
2022-10-26T18:35:31.523Z,15.50
2022-10-26T18:37:58.357Z,15.50
2022-10-26T18:40:25.051Z,15.40
2022-10-26T18:42:51.793Z,15.40
2022-10-26T18:45:18.590Z,15.40
2022-10-26T18:47:45.285Z,15.40
2022-10-26T18:50:12.117Z,15.40
2022-10-26T18:52:39.051Z,15.30
2022-10-26T18:55:06.684Z,15.30
2022-10-26T18:57:34.363Z,15.20
2022-10-26T19:00:01.120Z,15.20
2022-10-26T19:02:28.210Z,15.20
2022-10-26T19:04:58.696Z,15.20
2022-10-26T19:07:25.492Z,15.10
2022-10-26T19:09:52.480Z,15.10
2022-10-26T19:12:19.143Z,15.10
2022-10-26T19:14:45.879Z,15.10
2022-10-26T19:17:12.748Z,15.10
2022-10-26T19:19:39.511Z,15.10
2022-10-26T19:22:06.440Z,15.10
2022-10-26T19:24:33.525Z,15.00
2022-10-26T19:27:00.264Z,15.00
2022-10-26T19:29:26.968Z,15.00
2022-10-26T19:31:53.770Z,15.00
2022-10-26T19:34:20.634Z,14.90
2022-10-26T19:36:47.688Z,14.90
2022-10-26T19:39:17.850Z,14.90
2022-10-26T19:41:45.455Z,14.90
2022-10-26T19:44:12.606Z,14.80
2022-10-26T19:46:40.008Z,14.90
2022-10-26T19:49:07.150Z,14.80
2022-10-26T19:51:33.960Z,14.70
2022-10-26T19:54:04.001Z,14.70
2022-10-26T19:56:31.465Z,14.70
2022-10-26T19:58:58.360Z,14.70
2022-10-26T20:01:25.330Z,14.70
2022-10-26T20:03:52.229Z,14.70
2022-10-26T20:06:19.289Z,14.70
2022-10-26T20:08:48.220Z,14.70
2022-10-26T20:11:16.233Z,14.70
2022-10-26T20:13:43.451Z,14.70
2022-10-26T20:16:10.486Z,14.70
2022-10-26T20:18:37.272Z,14.70
2022-10-26T20:21:08.696Z,14.60
2022-10-26T20:23:36.164Z,14.60
2022-10-26T20:26:03.377Z,14.50
2022-10-26T20:28:30.942Z,14.50
2022-10-26T20:30:59.270Z,14.50
2022-10-26T20:33:26.703Z,14.50
2022-10-26T20:36:00.394Z,14.40
2022-10-26T20:38:28.793Z,14.40
2022-10-26T20:40:59.256Z,14.30
2022-10-26T20:43:26.884Z,14.30
2022-10-26T20:45:54.650Z,14.30
2022-10-26T20:48:22.103Z,14.30
2022-10-26T20:51:08.029Z,14.30
2022-10-26T20:53:35.498Z,14.30
2022-10-26T20:56:06.398Z,14.30
2022-10-26T20:58:36.244Z,14.30
2022-10-26T21:01:05.505Z,14.30
2022-10-26T21:03:32.402Z,14.40
2022-10-26T21:05:59.092Z,14.40
2022-10-26T21:08:25.800Z,14.40
2022-10-26T21:10:52.580Z,14.40
2022-10-26T21:13:19.369Z,14.40
2022-10-26T21:15:46.095Z,14.50
2022-10-26T21:18:12.990Z,14.50
2022-10-26T21:20:39.762Z,14.50
2022-10-26T21:23:06.543Z,14.50
2022-10-26T21:25:35.915Z,14.50
2022-10-26T21:28:02.923Z,14.60
2022-10-26T21:30:29.783Z,14.60
2022-10-26T21:35:24.110Z,14.60
2022-10-26T21:37:51.091Z,14.60
2022-10-26T21:40:18.076Z,14.60
2022-10-26T21:42:49.895Z,14.50
2022-10-26T21:45:17.844Z,14.50
2022-10-26T21:47:45.042Z,14.50
2022-10-26T21:50:11.788Z,14.40
2022-10-26T21:52:38.529Z,14.40
2022-10-26T21:55:05.767Z,14.40
2022-10-26T21:57:32.860Z,14.30
2022-10-26T21:59:59.580Z,14.30
2022-10-26T22:02:26.332Z,14.30
2022-10-26T22:04:54.419Z,14.20
2022-10-26T22:07:21.308Z,14.20
2022-10-26T22:10:00.737Z,14.20
2022-10-26T22:12:35.056Z,14.20
2022-10-26T22:15:02.130Z,14.20
2022-10-26T22:17:28.897Z,14.20
2022-10-26T22:19:55.828Z,14.20
2022-10-26T22:22:22.536Z,14.10
2022-10-26T22:24:49.618Z,14.20
2022-10-26T22:27:16.326Z,14.10
2022-10-26T22:29:43.082Z,14.10
2022-10-26T22:32:09.954Z,14.20
2022-10-26T22:34:36.715Z,14.10
2022-10-26T22:37:03.611Z,14.20
2022-10-26T22:39:30.308Z,14.20
2022-10-26T22:41:57.408Z,14.30
2022-10-26T22:44:24.218Z,14.40
2022-10-26T22:46:50.863Z,14.50
2022-10-26T22:49:17.951Z,14.50
2022-10-26T22:51:44.750Z,14.50
2022-10-26T22:54:11.495Z,14.50
2022-10-26T22:56:38.685Z,14.50
2022-10-26T22:59:05.799Z,14.50
2022-10-26T23:01:35.999Z,14.50
2022-10-26T23:04:03.110Z,14.50
2022-10-26T23:06:30.739Z,14.50
2022-10-26T23:08:57.598Z,14.50
2022-10-26T23:11:25.523Z,14.50
2022-10-26T23:13:54.176Z,14.50
2022-10-26T23:16:21.545Z,14.50
2022-10-26T23:18:48.558Z,14.50
2022-10-26T23:21:15.994Z,14.50
2022-10-26T23:23:42.754Z,14.40
2022-10-26T23:26:14.147Z,14.50
2022-10-26T23:28:41.185Z,14.40
2022-10-26T23:31:08.143Z,14.40
2022-10-26T23:33:34.860Z,14.40
2022-10-26T23:36:01.590Z,14.40
2022-10-26T23:38:28.313Z,14.40
2022-10-26T23:40:59.342Z,14.40
2022-10-26T23:43:26.817Z,14.40
2022-10-26T23:45:54.669Z,14.40
2022-10-26T23:48:21.516Z,14.40
2022-10-26T23:50:49.247Z,14.40
2022-10-26T23:53:17.062Z,14.50
2022-10-26T23:55:44.777Z,14.50
2022-10-26T23:58:11.815Z,14.50
